sensor_id;sensor_type;location;lat;lon;timestamp;pressure;altitude;pressure_sealevel;temperature;humidity
14089;BME280;7120;52.890;6.040;2023-03-16T00:01:08;101749.75;;;4.51;67.90
14089;BME280;7120;52.890;6.040;2023-03-16T00:03:34;101754.56;;;4.61;67.87
14089;BME280;7120;52.890;6.040;2023-03-16T00:06:00;101732.94;;;4.37;67.37
14089;BME280;7120;52.890;6.040;2023-03-16T00:08:25;101753.03;;;4.53;66.75
14089;BME280;7120;52.890;6.040;2023-03-16T00:10:51;101748.66;;;4.64;67.45
14089;BME280;7120;52.890;6.040;2023-03-16T00:13:20;101742.53;;;4.68;67.54
14089;BME280;7120;52.890;6.040;2023-03-16T00:15:54;101741.19;;;4.71;67.21
14089;BME280;7120;52.890;6.040;2023-03-16T00:18:21;101740.06;;;4.67;67.41
14089;BME280;7120;52.890;6.040;2023-03-16T00:20:51;101739.44;;;4.65;67.91
14089;BME280;7120;52.890;6.040;2023-03-16T00:23:16;101729.47;;;4.65;67.77
14089;BME280;7120;52.890;6.040;2023-03-16T00:25:42;101717.34;;;4.56;67.25
14089;BME280;7120;52.890;6.040;2023-03-16T00:28:07;101721.63;;;4.81;68.11
14089;BME280;7120;52.890;6.040;2023-03-16T00:30:32;101724.06;;;4.65;68.49
14089;BME280;7120;52.890;6.040;2023-03-16T00:32:58;101720.31;;;4.83;68.80
14089;BME280;7120;52.890;6.040;2023-03-16T00:35:23;101721.09;;;4.67;68.25
14089;BME280;7120;52.890;6.040;2023-03-16T00:37:49;101715.03;;;4.77;68.06
14089;BME280;7120;52.890;6.040;2023-03-16T00:40:15;101706.09;;;4.76;68.27
14089;BME280;7120;52.890;6.040;2023-03-16T00:42:41;101703.72;;;4.80;68.68
14089;BME280;7120;52.890;6.040;2023-03-16T00:45:07;101703.13;;;4.78;68.61
14089;BME280;7120;52.890;6.040;2023-03-16T00:47:33;101707.94;;;4.87;68.31
14089;BME280;7120;52.890;6.040;2023-03-16T00:49:59;101699.69;;;4.82;68.35
14089;BME280;7120;52.890;6.040;2023-03-16T00:52:26;101698.91;;;4.70;69.93
14089;BME280;7120;52.890;6.040;2023-03-16T00:54:52;101697.19;;;4.64;69.26
14089;BME280;7120;52.890;6.040;2023-03-16T00:57:20;101683.16;;;4.67;69.17
14089;BME280;7120;52.890;6.040;2023-03-16T00:59:47;101688.19;;;4.75;69.84
14089;BME280;7120;52.890;6.040;2023-03-16T01:02:15;101686.19;;;4.71;69.75
14089;BME280;7120;52.890;6.040;2023-03-16T01:04:41;101665.84;;;4.68;69.35
14089;BME280;7120;52.890;6.040;2023-03-16T01:07:09;101675.31;;;4.54;70.28
14089;BME280;7120;52.890;6.040;2023-03-16T01:09:37;101669.06;;;4.53;70.89
14089;BME280;7120;52.890;6.040;2023-03-16T01:12:04;101661.06;;;4.58;70.43
14089;BME280;7120;52.890;6.040;2023-03-16T01:14:31;101662.16;;;4.74;69.80
14089;BME280;7120;52.890;6.040;2023-03-16T01:16:57;101648.66;;;4.62;70.26
14089;BME280;7120;52.890;6.040;2023-03-16T01:19:22;101657.47;;;4.69;70.47
14089;BME280;7120;52.890;6.040;2023-03-16T01:21:48;101653.00;;;4.63;70.26
14089;BME280;7120;52.890;6.040;2023-03-16T01:24:13;101649.59;;;4.68;70.47
14089;BME280;7120;52.890;6.040;2023-03-16T01:26:38;101648.66;;;4.62;70.44
14089;BME280;7120;52.890;6.040;2023-03-16T01:29:04;101653.97;;;4.57;70.29
14089;BME280;7120;52.890;6.040;2023-03-16T01:31:29;101639.72;;;4.62;70.31
14089;BME280;7120;52.890;6.040;2023-03-16T01:33:56;101633.38;;;4.56;71.06
14089;BME280;7120;52.890;6.040;2023-03-16T01:36:21;101634.53;;;4.60;71.25
14089;BME280;7120;52.890;6.040;2023-03-16T01:38:47;101644.47;;;4.72;70.95
14089;BME280;7120;52.890;6.040;2023-03-16T01:41:13;101635.13;;;4.62;71.64
14089;BME280;7120;52.890;6.040;2023-03-16T01:43:40;101634.00;;;4.75;70.86
14089;BME280;7120;52.890;6.040;2023-03-16T01:48:36;101610.69;;;4.74;70.91
14089;BME280;7120;52.890;6.040;2023-03-16T01:51:10;101614.22;;;4.75;71.71
14089;BME280;7120;52.890;6.040;2023-03-16T01:53:38;101609.84;;;4.74;71.53
14089;BME280;7120;52.890;6.040;2023-03-16T01:56:07;101610.59;;;4.69;71.45
14089;BME280;7120;52.890;6.040;2023-03-16T01:58:35;101607.66;;;4.87;71.15
14089;BME280;7120;52.890;6.040;2023-03-16T02:01:02;101597.03;;;4.86;70.86
14089;BME280;7120;52.890;6.040;2023-03-16T02:03:28;101591.16;;;4.89;71.43
14089;BME280;7120;52.890;6.040;2023-03-16T02:06:05;101593.91;;;4.77;70.97
14089;BME280;7120;52.890;6.040;2023-03-16T02:08:34;101587.44;;;4.78;70.73
14089;BME280;7120;52.890;6.040;2023-03-16T02:11:02;101578.25;;;4.96;70.36
14089;BME280;7120;52.890;6.040;2023-03-16T02:13:28;101573.41;;;4.98;70.85
14089;BME280;7120;52.890;6.040;2023-03-16T02:15:58;101573.56;;;4.91;70.42
14089;BME280;7120;52.890;6.040;2023-03-16T02:18:24;101574.56;;;5.02;70.85
14089;BME280;7120;52.890;6.040;2023-03-16T02:20:57;101572.41;;;5.04;70.89
14089;BME280;7120;52.890;6.040;2023-03-16T02:23:29;101573.00;;;4.89;71.11
14089;BME280;7120;52.890;6.040;2023-03-16T02:26:18;101571.09;;;4.90;70.93
14089;BME280;7120;52.890;6.040;2023-03-16T02:29:24;101567.81;;;5.05;70.47
14089;BME280;7120;52.890;6.040;2023-03-16T02:31:55;101567.66;;;4.94;71.10
14089;BME280;7120;52.890;6.040;2023-03-16T02:34:21;101575.84;;;5.00;71.35
14089;BME280;7120;52.890;6.040;2023-03-16T02:36:48;101572.59;;;4.97;71.52
14089;BME280;7120;52.890;6.040;2023-03-16T02:39:16;101578.41;;;5.06;70.91
14089;BME280;7120;52.890;6.040;2023-03-16T02:41:42;101563.72;;;5.02;70.23
14089;BME280;7120;52.890;6.040;2023-03-16T02:44:11;101567.88;;;4.93;70.52
14089;BME280;7120;52.890;6.040;2023-03-16T02:46:41;101549.75;;;4.93;71.30
14089;BME280;7120;52.890;6.040;2023-03-16T02:49:21;101544.75;;;5.02;71.89
14089;BME280;7120;52.890;6.040;2023-03-16T02:51:49;101558.13;;;5.09;71.04
14089;BME280;7120;52.890;6.040;2023-03-16T02:54:15;101561.81;;;5.19;71.56
14089;BME280;7120;52.890;6.040;2023-03-16T02:56:40;101549.66;;;5.05;70.85
14089;BME280;7120;52.890;6.040;2023-03-16T02:59:06;101542.84;;;5.03;71.88
14089;BME280;7120;52.890;6.040;2023-03-16T03:01:32;101552.53;;;5.15;71.69
14089;BME280;7120;52.890;6.040;2023-03-16T03:03:59;101554.50;;;5.03;71.44
14089;BME280;7120;52.890;6.040;2023-03-16T03:06:25;101548.09;;;5.09;71.63
14089;BME280;7120;52.890;6.040;2023-03-16T03:08:50;101545.31;;;5.04;71.75
14089;BME280;7120;52.890;6.040;2023-03-16T03:11:16;101549.66;;;5.22;71.68
14089;BME280;7120;52.890;6.040;2023-03-16T03:13:44;101541.44;;;5.17;71.64
14089;BME280;7120;52.890;6.040;2023-03-16T03:16:11;101534.22;;;5.22;72.00
14089;BME280;7120;52.890;6.040;2023-03-16T03:18:37;101529.59;;;5.23;71.63
14089;BME280;7120;52.890;6.040;2023-03-16T03:21:02;101533.78;;;5.14;72.02
14089;BME280;7120;52.890;6.040;2023-03-16T03:23:27;101532.41;;;5.11;72.03
14089;BME280;7120;52.890;6.040;2023-03-16T03:25:56;101530.84;;;5.15;71.92
14089;BME280;7120;52.890;6.040;2023-03-16T03:28:22;101527.53;;;5.30;71.23
14089;BME280;7120;52.890;6.040;2023-03-16T03:30:47;101511.19;;;5.25;71.76
14089;BME280;7120;52.890;6.040;2023-03-16T03:33:13;101492.81;;;5.10;71.21
14089;BME280;7120;52.890;6.040;2023-03-16T03:35:38;101502.50;;;5.06;72.20
14089;BME280;7120;52.890;6.040;2023-03-16T03:38:04;101487.47;;;4.99;72.74
14089;BME280;7120;52.890;6.040;2023-03-16T03:40:29;101497.81;;;5.18;72.32
14089;BME280;7120;52.890;6.040;2023-03-16T03:42:54;101502.06;;;5.14;72.55
14089;BME280;7120;52.890;6.040;2023-03-16T03:45:20;101498.50;;;5.09;72.63
14089;BME280;7120;52.890;6.040;2023-03-16T03:47:45;101498.16;;;5.05;73.05
14089;BME280;7120;52.890;6.040;2023-03-16T03:50:12;101495.34;;;5.00;73.01
14089;BME280;7120;52.890;6.040;2023-03-16T03:52:37;101481.50;;;4.96;72.89
14089;BME280;7120;52.890;6.040;2023-03-16T03:55:03;101486.84;;;5.08;72.81
14089;BME280;7120;52.890;6.040;2023-03-16T03:57:30;101477.53;;;5.04;72.78
14089;BME280;7120;52.890;6.040;2023-03-16T03:59:55;101481.78;;;5.17;73.31
14089;BME280;7120;52.890;6.040;2023-03-16T04:02:20;101480.63;;;5.13;73.09
14089;BME280;7120;52.890;6.040;2023-03-16T04:04:46;101478.06;;;5.01;73.56
14089;BME280;7120;52.890;6.040;2023-03-16T04:07:11;101481.47;;;5.13;73.58
14089;BME280;7120;52.890;6.040;2023-03-16T04:09:37;101473.56;;;5.12;73.38
14089;BME280;7120;52.890;6.040;2023-03-16T04:12:04;101478.53;;;4.98;73.58
14089;BME280;7120;52.890;6.040;2023-03-16T04:14:30;101464.38;;;5.13;73.31
14089;BME280;7120;52.890;6.040;2023-03-16T04:16:56;101469.91;;;5.01;73.92
14089;BME280;7120;52.890;6.040;2023-03-16T04:19:22;101469.03;;;4.95;73.73
14089;BME280;7120;52.890;6.040;2023-03-16T04:21:49;101465.97;;;5.09;73.84
14089;BME280;7120;52.890;6.040;2023-03-16T04:24:15;101459.84;;;4.80;74.05
14089;BME280;7120;52.890;6.040;2023-03-16T04:26:41;101467.84;;;5.08;73.95
14089;BME280;7120;52.890;6.040;2023-03-16T04:29:09;101464.97;;;5.15;73.96
14089;BME280;7120;52.890;6.040;2023-03-16T04:31:35;101463.47;;;5.07;75.07
14089;BME280;7120;52.890;6.040;2023-03-16T04:34:00;101472.56;;;4.96;75.43
14089;BME280;7120;52.890;6.040;2023-03-16T04:36:26;101467.44;;;5.00;75.06
14089;BME280;7120;52.890;6.040;2023-03-16T04:38:52;101474.44;;;4.95;75.42
14089;BME280;7120;52.890;6.040;2023-03-16T04:41:17;101470.56;;;4.91;76.59
14089;BME280;7120;52.890;6.040;2023-03-16T04:43:43;101470.91;;;4.78;77.16
14089;BME280;7120;52.890;6.040;2023-03-16T04:46:09;101465.91;;;4.87;77.61
14089;BME280;7120;52.890;6.040;2023-03-16T04:48:35;101461.75;;;4.79;78.90
14089;BME280;7120;52.890;6.040;2023-03-16T04:51:01;101463.22;;;4.87;78.81
14089;BME280;7120;52.890;6.040;2023-03-16T04:53:28;101446.78;;;4.77;79.30
14089;BME280;7120;52.890;6.040;2023-03-16T04:55:54;101464.47;;;4.79;79.56
14089;BME280;7120;52.890;6.040;2023-03-16T04:58:19;101453.84;;;4.78;79.77
14089;BME280;7120;52.890;6.040;2023-03-16T05:00:44;101457.34;;;4.95;80.13
14089;BME280;7120;52.890;6.040;2023-03-16T05:03:10;101460.09;;;4.61;80.98
14089;BME280;7120;52.890;6.040;2023-03-16T05:05:36;101448.03;;;4.69;81.40
14089;BME280;7120;52.890;6.040;2023-03-16T05:08:02;101441.63;;;4.75;80.92
14089;BME280;7120;52.890;6.040;2023-03-16T05:10:30;101447.50;;;4.89;80.34
14089;BME280;7120;52.890;6.040;2023-03-16T05:12:56;101446.34;;;4.85;81.33
14089;BME280;7120;52.890;6.040;2023-03-16T05:15:21;101450.66;;;4.81;81.93
14089;BME280;7120;52.890;6.040;2023-03-16T05:17:46;101442.34;;;4.87;82.35
14089;BME280;7120;52.890;6.040;2023-03-16T05:20:12;101436.38;;;4.68;82.95
14089;BME280;7120;52.890;6.040;2023-03-16T05:22:43;101431.50;;;4.87;82.96
14089;BME280;7120;52.890;6.040;2023-03-16T05:25:09;101440.81;;;4.75;83.37
14089;BME280;7120;52.890;6.040;2023-03-16T05:27:49;101440.13;;;4.84;84.05
14089;BME280;7120;52.890;6.040;2023-03-16T05:30:16;101444.72;;;4.84;83.33
14089;BME280;7120;52.890;6.040;2023-03-16T05:32:42;101440.28;;;4.78;83.32
14089;BME280;7120;52.890;6.040;2023-03-16T05:35:08;101434.81;;;4.73;83.37
14089;BME280;7120;52.890;6.040;2023-03-16T05:37:36;101427.34;;;4.80;83.09
14089;BME280;7120;52.890;6.040;2023-03-16T05:40:04;101418.94;;;4.81;83.67
14089;BME280;7120;52.890;6.040;2023-03-16T05:42:36;101415.53;;;4.69;83.74
14089;BME280;7120;52.890;6.040;2023-03-16T05:45:02;101420.38;;;4.67;83.81
14089;BME280;7120;52.890;6.040;2023-03-16T05:47:27;101411.59;;;4.60;84.82
14089;BME280;7120;52.890;6.040;2023-03-16T05:49:52;101407.66;;;4.67;84.06
14089;BME280;7120;52.890;6.040;2023-03-16T05:52:18;101402.78;;;4.69;84.08
14089;BME280;7120;52.890;6.040;2023-03-16T05:54:44;101407.56;;;4.79;83.79
14089;BME280;7120;52.890;6.040;2023-03-16T05:57:10;101408.28;;;4.75;83.56
14089;BME280;7120;52.890;6.040;2023-03-16T05:59:35;101408.59;;;4.78;83.37
14089;BME280;7120;52.890;6.040;2023-03-16T06:02:01;101406.22;;;4.82;83.18
14089;BME280;7120;52.890;6.040;2023-03-16T06:04:26;101415.59;;;4.74;83.13
14089;BME280;7120;52.890;6.040;2023-03-16T06:06:51;101416.00;;;4.83;83.44
14089;BME280;7120;52.890;6.040;2023-03-16T06:09:16;101418.94;;;4.81;82.88
14089;BME280;7120;52.890;6.040;2023-03-16T06:11:42;101422.31;;;4.88;82.68
14089;BME280;7120;52.890;6.040;2023-03-16T06:14:08;101419.69;;;4.93;82.36
14089;BME280;7120;52.890;6.040;2023-03-16T06:16:33;101417.63;;;4.84;81.94
14089;BME280;7120;52.890;6.040;2023-03-16T06:18:59;101421.63;;;4.98;82.10
14089;BME280;7120;52.890;6.040;2023-03-16T06:21:25;101415.75;;;5.06;82.03
14089;BME280;7120;52.890;6.040;2023-03-16T06:23:50;101414.72;;;4.90;80.50
14089;BME280;7120;52.890;6.040;2023-03-16T06:26:15;101411.53;;;4.93;81.19
14089;BME280;7120;52.890;6.040;2023-03-16T06:28:41;101413.25;;;5.21;80.31
14089;BME280;7120;52.890;6.040;2023-03-16T06:31:06;101411.75;;;5.09;81.18
14089;BME280;7120;52.890;6.040;2023-03-16T06:33:31;101415.75;;;5.06;81.64
14089;BME280;7120;52.890;6.040;2023-03-16T06:35:57;101404.88;;;5.23;80.95
14089;BME280;7120;52.890;6.040;2023-03-16T06:38:22;101399.56;;;5.11;81.11
14089;BME280;7120;52.890;6.040;2023-03-16T06:40:51;101386.56;;;5.13;80.42
14089;BME280;7120;52.890;6.040;2023-03-16T06:43:17;101393.50;;;5.04;81.27
14089;BME280;7120;52.890;6.040;2023-03-16T06:45:42;101399.50;;;5.28;81.13
14089;BME280;7120;52.890;6.040;2023-03-16T06:48:08;101393.84;;;5.08;81.01
14089;BME280;7120;52.890;6.040;2023-03-16T06:50:34;101406.75;;;5.22;81.40
14089;BME280;7120;52.890;6.040;2023-03-16T06:53:00;101394.19;;;5.38;81.12
14089;BME280;7120;52.890;6.040;2023-03-16T06:55:25;101400.06;;;5.52;81.52
14089;BME280;7120;52.890;6.040;2023-03-16T06:57:50;101394.28;;;5.43;79.89
14089;BME280;7120;52.890;6.040;2023-03-16T07:00:16;101401.22;;;5.61;80.31
14089;BME280;7120;52.890;6.040;2023-03-16T07:02:41;101399.78;;;5.54;80.66
14089;BME280;7120;52.890;6.040;2023-03-16T07:05:08;101401.88;;;5.46;80.89
14089;BME280;7120;52.890;6.040;2023-03-16T07:07:38;101398.28;;;5.41;82.23
14089;BME280;7120;52.890;6.040;2023-03-16T07:10:04;101410.34;;;5.50;82.19
14089;BME280;7120;52.890;6.040;2023-03-16T07:12:29;101399.25;;;5.51;83.44
14089;BME280;7120;52.890;6.040;2023-03-16T07:14:55;101395.91;;;5.44;83.73
14089;BME280;7120;52.890;6.040;2023-03-16T07:17:20;101407.03;;;5.48;84.82
14089;BME280;7120;52.890;6.040;2023-03-16T07:19:46;101400.44;;;5.39;85.16
14089;BME280;7120;52.890;6.040;2023-03-16T07:22:11;101401.31;;;5.44;85.81
14089;BME280;7120;52.890;6.040;2023-03-16T07:24:37;101401.59;;;5.43;85.74
14089;BME280;7120;52.890;6.040;2023-03-16T07:27:02;101394.94;;;5.34;86.01
14089;BME280;7120;52.890;6.040;2023-03-16T07:29:27;101398.41;;;5.51;86.95
14089;BME280;7120;52.890;6.040;2023-03-16T07:31:53;101400.97;;;5.63;85.25
14089;BME280;7120;52.890;6.040;2023-03-16T07:34:19;101391.66;;;5.54;85.16
14089;BME280;7120;52.890;6.040;2023-03-16T07:36:45;101398.03;;;5.64;86.95
14089;BME280;7120;52.890;6.040;2023-03-16T07:39:13;101399.75;;;5.75;86.05
14089;BME280;7120;52.890;6.040;2023-03-16T07:41:39;101402.41;;;5.70;86.19
14089;BME280;7120;52.890;6.040;2023-03-16T07:44:04;101401.91;;;5.73;86.61
14089;BME280;7120;52.890;6.040;2023-03-16T07:46:29;101404.81;;;5.67;87.42
14089;BME280;7120;52.890;6.040;2023-03-16T07:48:57;101402.78;;;5.79;87.82
14089;BME280;7120;52.890;6.040;2023-03-16T07:51:22;101403.75;;;5.68;88.41
14089;BME280;7120;52.890;6.040;2023-03-16T07:53:48;101400.78;;;5.69;88.97
14089;BME280;7120;52.890;6.040;2023-03-16T07:56:13;101405.53;;;5.57;88.35
14089;BME280;7120;52.890;6.040;2023-03-16T07:58:38;101390.91;;;5.58;88.23
14089;BME280;7120;52.890;6.040;2023-03-16T08:01:04;101412.25;;;5.76;89.94
14089;BME280;7120;52.890;6.040;2023-03-16T08:03:29;101405.53;;;5.57;89.94
14089;BME280;7120;52.890;6.040;2023-03-16T08:05:56;101407.03;;;5.48;90.10
14089;BME280;7120;52.890;6.040;2023-03-16T08:08:21;101407.75;;;5.60;91.26
14089;BME280;7120;52.890;6.040;2023-03-16T08:10:48;101400.22;;;5.67;91.60
14089;BME280;7120;52.890;6.040;2023-03-16T08:13:15;101399.50;;;5.77;92.61
14089;BME280;7120;52.890;6.040;2023-03-16T08:15:44;101406.09;;;5.59;92.14
14089;BME280;7120;52.890;6.040;2023-03-16T08:18:10;101404.16;;;5.82;93.39
14089;BME280;7120;52.890;6.040;2023-03-16T08:20:36;101383.78;;;5.79;93.87
14089;BME280;7120;52.890;6.040;2023-03-16T08:23:02;101396.56;;;5.84;94.38
14089;BME280;7120;52.890;6.040;2023-03-16T08:25:27;101392.59;;;5.91;94.42
14089;BME280;7120;52.890;6.040;2023-03-16T08:27:53;101385.28;;;5.92;93.65
14089;BME280;7120;52.890;6.040;2023-03-16T08:30:18;101393.25;;;5.76;93.64
14089;BME280;7120;52.890;6.040;2023-03-16T08:32:44;101391.97;;;5.84;93.56
14089;BME280;7120;52.890;6.040;2023-03-16T08:35:12;101391.09;;;6.05;94.22
14089;BME280;7120;52.890;6.040;2023-03-16T08:37:38;101380.69;;;5.70;93.62
14089;BME280;7120;52.890;6.040;2023-03-16T08:40:04;101389.16;;;5.74;95.25
14089;BME280;7120;52.890;6.040;2023-03-16T08:42:34;101396.16;;;5.70;95.64
14089;BME280;7120;52.890;6.040;2023-03-16T08:44:59;101394.16;;;5.60;95.80
14089;BME280;7120;52.890;6.040;2023-03-16T08:47:34;101394.06;;;5.77;95.40
14089;BME280;7120;52.890;6.040;2023-03-16T08:49:59;101392.13;;;5.72;96.38
14089;BME280;7120;52.890;6.040;2023-03-16T08:52:26;101394.72;;;5.62;95.49
14089;BME280;7120;52.890;6.040;2023-03-16T08:54:51;101393.56;;;5.80;96.91
14089;BME280;7120;52.890;6.040;2023-03-16T08:57:17;101392.53;;;5.86;96.51
14089;BME280;7120;52.890;6.040;2023-03-16T08:59:42;101380.28;;;5.84;96.68
14089;BME280;7120;52.890;6.040;2023-03-16T09:02:12;101385.91;;;5.77;97.11
14089;BME280;7120;52.890;6.040;2023-03-16T09:04:39;101388.13;;;5.80;97.38
14089;BME280;7120;52.890;6.040;2023-03-16T09:07:04;101381.91;;;5.85;97.91
14089;BME280;7120;52.890;6.040;2023-03-16T09:09:30;101385.50;;;5.90;99.18
14089;BME280;7120;52.890;6.040;2023-03-16T09:11:57;101384.63;;;5.85;98.45
14089;BME280;7120;52.890;6.040;2023-03-16T09:14:23;101383.47;;;6.02;99.65
14089;BME280;7120;52.890;6.040;2023-03-16T09:16:49;101388.91;;;6.02;98.45
14089;BME280;7120;52.890;6.040;2023-03-16T09:19:15;101376.41;;;6.01;98.64
14089;BME280;7120;52.890;6.040;2023-03-16T09:21:41;101361.75;;;6.02;98.34
14089;BME280;7120;52.890;6.040;2023-03-16T09:24:06;101376.91;;;5.93;99.78
14089;BME280;7120;52.890;6.040;2023-03-16T09:26:34;101367.19;;;6.02;99.03
14089;BME280;7120;52.890;6.040;2023-03-16T09:28:59;101361.69;;;5.92;99.25
14089;BME280;7120;52.890;6.040;2023-03-16T09:31:24;101360.72;;;5.82;99.84
14089;BME280;7120;52.890;6.040;2023-03-16T09:33:50;101370.19;;;6.01;100.00
14089;BME280;7120;52.890;6.040;2023-03-16T09:36:16;101371.75;;;5.97;99.56
14089;BME280;7120;52.890;6.040;2023-03-16T09:38:42;101365.63;;;5.85;100.00
14089;BME280;7120;52.890;6.040;2023-03-16T09:43:53;101368.63;;;6.10;99.62
14089;BME280;7120;52.890;6.040;2023-03-16T09:46:31;101367.38;;;6.23;100.00
14089;BME280;7120;52.890;6.040;2023-03-16T09:48:59;101356.22;;;6.24;100.00
14089;BME280;7120;52.890;6.040;2023-03-16T09:51:29;101339.13;;;6.24;100.00
14089;BME280;7120;52.890;6.040;2023-03-16T09:54:01;101327.84;;;6.42;99.92
14089;BME280;7120;52.890;6.040;2023-03-16T09:56:35;101325.69;;;6.44;99.25
14089;BME280;7120;52.890;6.040;2023-03-16T09:59:11;101333.06;;;6.54;98.55
14089;BME280;7120;52.890;6.040;2023-03-16T10:04:38;101346.75;;;6.74;98.30
14089;BME280;7120;52.890;6.040;2023-03-16T10:07:32;101343.53;;;6.77;96.87
14089;BME280;7120;52.890;6.040;2023-03-16T10:10:20;101339.84;;;7.09;96.81
14089;BME280;7120;52.890;6.040;2023-03-16T10:12:51;101338.50;;;7.11;96.27
14089;BME280;7120;52.890;6.040;2023-03-16T10:15:22;101331.16;;;7.07;96.14
14089;BME280;7120;52.890;6.040;2023-03-16T10:18:04;101333.66;;;7.24;93.75
14089;BME280;7120;52.890;6.040;2023-03-16T10:20:33;101333.38;;;7.30;93.39
14089;BME280;7120;52.890;6.040;2023-03-16T10:22:59;101334.75;;;7.33;92.41
14089;BME280;7120;52.890;6.040;2023-03-16T10:25:43;101325.47;;;7.24;92.18
14089;BME280;7120;52.890;6.040;2023-03-16T10:28:21;101315.09;;;7.10;91.80
14089;BME280;7120;52.890;6.040;2023-03-16T10:30:50;101306.75;;;7.37;91.29
14089;BME280;7120;52.890;6.040;2023-03-16T10:33:30;101315.78;;;7.79;92.06
14089;BME280;7120;52.890;6.040;2023-03-16T10:36:04;101323.13;;;7.73;90.36
14089;BME280;7120;52.890;6.040;2023-03-16T10:38:45;101321.75;;;7.65;89.16
14089;BME280;7120;52.890;6.040;2023-03-16T10:43:58;101323.16;;;7.83;89.40
14089;BME280;7120;52.890;6.040;2023-03-16T10:46:45;101319.31;;;7.74;90.05
14089;BME280;7120;52.890;6.040;2023-03-16T10:49:37;101312.78;;;7.75;88.10
14089;BME280;7120;52.890;6.040;2023-03-16T10:52:13;101301.34;;;7.88;87.98
14089;BME280;7120;52.890;6.040;2023-03-16T10:54:48;101317.16;;;8.12;89.05
14089;BME280;7120;52.890;6.040;2023-03-16T10:59:51;101307.84;;;8.53;85.36
14089;BME280;7120;52.890;6.040;2023-03-16T11:02:20;101311.03;;;8.76;83.33
14089;BME280;7120;52.890;6.040;2023-03-16T11:04:48;101297.72;;;8.59;84.30
14089;BME280;7120;52.890;6.040;2023-03-16T11:07:18;101297.25;;;9.12;83.12
14089;BME280;7120;52.890;6.040;2023-03-16T11:09:45;101295.00;;;9.24;83.38
14089;BME280;7120;52.890;6.040;2023-03-16T11:12:23;101287.22;;;9.46;81.16
14089;BME280;7120;52.890;6.040;2023-03-16T11:14:49;101290.66;;;9.62;81.51
14089;BME280;7120;52.890;6.040;2023-03-16T11:17:27;101295.34;;;9.90;78.14
14089;BME280;7120;52.890;6.040;2023-03-16T11:20:03;101298.16;;;9.80;79.11
14089;BME280;7120;52.890;6.040;2023-03-16T11:22:40;101295.91;;;9.87;76.50
14089;BME280;7120;52.890;6.040;2023-03-16T11:27:41;101291.16;;;10.56;74.86
14089;BME280;7120;52.890;6.040;2023-03-16T11:30:32;101281.00;;;11.23;75.72
14089;BME280;7120;52.890;6.040;2023-03-16T11:33:00;101269.06;;;10.95;74.22
14089;BME280;7120;52.890;6.040;2023-03-16T11:35:36;101249.63;;;10.97;71.91
14089;BME280;7120;52.890;6.040;2023-03-16T11:38:22;101258.88;;;11.01;71.11
14089;BME280;7120;52.890;6.040;2023-03-16T11:40:58;101266.75;;;10.84;72.70
14089;BME280;7120;52.890;6.040;2023-03-16T11:46:14;101245.09;;;10.15;72.46
14089;BME280;7120;52.890;6.040;2023-03-16T11:49:30;101252.53;;;10.10;75.51
14089;BME280;7120;52.890;6.040;2023-03-16T12:02:52;101231.19;;;10.12;71.35
14089;BME280;7120;52.890;6.040;2023-03-16T12:08:00;101234.59;;;10.28;70.90
14089;BME280;7120;52.890;6.040;2023-03-16T12:10:48;101231.59;;;10.29;71.50
14089;BME280;7120;52.890;6.040;2023-03-16T12:13:43;101233.00;;;10.22;72.31
14089;BME280;7120;52.890;6.040;2023-03-16T12:18:51;101230.16;;;10.37;70.06
14089;BME280;7120;52.890;6.040;2023-03-16T12:21:25;101226.88;;;10.35;70.47
14089;BME280;7120;52.890;6.040;2023-03-16T12:23:54;101226.72;;;10.21;70.71
14089;BME280;7120;52.890;6.040;2023-03-16T12:26:23;101213.31;;;10.25;70.50
14089;BME280;7120;52.890;6.040;2023-03-16T12:28:50;101223.16;;;10.26;68.88
14089;BME280;7120;52.890;6.040;2023-03-16T12:31:23;101222.31;;;10.49;70.69
14089;BME280;7120;52.890;6.040;2023-03-16T12:33:54;101214.25;;;10.39;70.09
14089;BME280;7120;52.890;6.040;2023-03-16T12:39:34;101212.38;;;10.34;70.27
14089;BME280;7120;52.890;6.040;2023-03-16T12:44:53;101202.75;;;9.89;70.69
14089;BME280;7120;52.890;6.040;2023-03-16T12:50:06;101199.50;;;10.11;70.92
14089;BME280;7120;52.890;6.040;2023-03-16T12:52:43;101201.59;;;10.19;69.65
14089;BME280;7120;52.890;6.040;2023-03-16T12:55:23;101191.47;;;10.67;67.76
14089;BME280;7120;52.890;6.040;2023-03-16T12:57:59;101189.03;;;10.66;67.08
14089;BME280;7120;52.890;6.040;2023-03-16T13:00:34;101179.34;;;11.11;67.26
14089;BME280;7120;52.890;6.040;2023-03-16T13:03:01;101173.00;;;10.97;67.85
14089;BME280;7120;52.890;6.040;2023-03-16T13:05:30;101177.28;;;11.22;67.51
14089;BME280;7120;52.890;6.040;2023-03-16T13:08:22;101175.72;;;11.16;66.40
14089;BME280;7120;52.890;6.040;2023-03-16T13:13:25;101159.78;;;11.37;66.41
14089;BME280;7120;52.890;6.040;2023-03-16T13:16:05;101153.66;;;11.59;63.41
14089;BME280;7120;52.890;6.040;2023-03-16T13:18:38;101146.91;;;11.37;63.80
14089;BME280;7120;52.890;6.040;2023-03-16T13:21:20;101163.59;;;12.28;65.23
14089;BME280;7120;52.890;6.040;2023-03-16T13:23:58;101163.09;;;11.99;61.60
14089;BME280;7120;52.890;6.040;2023-03-16T13:26:57;101149.06;;;12.42;61.87
14089;BME280;7120;52.890;6.040;2023-03-16T13:29:25;101141.75;;;12.09;59.90
14089;BME280;7120;52.890;6.040;2023-03-16T13:31:56;101138.50;;;11.94;59.93
14089;BME280;7120;52.890;6.040;2023-03-16T13:34:28;101147.88;;;12.20;61.60
14089;BME280;7120;52.890;6.040;2023-03-16T13:36:56;101135.44;;;11.81;61.89
14089;BME280;7120;52.890;6.040;2023-03-16T13:39:27;101129.59;;;11.55;63.64
14089;BME280;7120;52.890;6.040;2023-03-16T13:44:39;101133.16;;;11.23;64.85
14089;BME280;7120;52.890;6.040;2023-03-16T13:47:05;101121.06;;;11.43;64.13
14089;BME280;7120;52.890;6.040;2023-03-16T13:49:32;101115.50;;;11.76;62.51
14089;BME280;7120;52.890;6.040;2023-03-16T13:51:57;101109.72;;;11.50;61.64
14089;BME280;7120;52.890;6.040;2023-03-16T13:54:26;101123.13;;;11.65;64.15
14089;BME280;7120;52.890;6.040;2023-03-16T13:56:55;101112.31;;;11.41;66.68
14089;BME280;7120;52.890;6.040;2023-03-16T13:59:21;101121.03;;;11.30;65.59
14089;BME280;7120;52.890;6.040;2023-03-16T14:01:47;101113.88;;;11.15;64.05
14089;BME280;7120;52.890;6.040;2023-03-16T14:04:13;101117.91;;;11.36;64.55
14089;BME280;7120;52.890;6.040;2023-03-16T14:06:51;101113.34;;;11.13;64.21